LTU44J EDDS-EDDW
Flight info
| Callsign | LTU44J |
|---|---|
| Flight time | 0h 47m |
| Altitude | 36000 |
| Route | OKIBA N851 RIMKI Z99 FUL/N0395F240 T152 NATSU/N0364F180 T152 PIROT N850 NIE DCT VERED |
| Aircraft | B762/H-SDFGIRWY/S |
Departure
| Time | 2026-05-06 07:03 |
|---|---|
| Airport | Stuttgart Airport (EDDS) |
Arrival
| Time | 2026-05-06 07:51 |
|---|---|
| Airport | Bremen Airport (EDDW) |
| Time | Latitude | Longitude | Altitude | Speed | Heading |
|---|---|---|---|---|---|
| 2026-05-06 06:52 | 48.68893 | 9.19430 | 1312 ft | 0 kts | 344° |
| 2026-05-06 06:56 | 48.68889 | 9.19431 | 1312 ft | 2 kts | 344° |
| 2026-05-06 06:56 | 48.68875 | 9.19438 | 1312 ft | 2 kts | 344° |
| 2026-05-06 06:56 | 48.68861 | 9.19444 | 1311 ft | 2 kts | 344° |
| 2026-05-06 06:56 | 48.68846 | 9.19450 | 1311 ft | 2 kts | 343° |
| 2026-05-06 06:57 | 48.68831 | 9.19454 | 1311 ft | 2 kts | 18° |
| 2026-05-06 06:57 | 48.68819 | 9.19441 | 1312 ft | 2 kts | 58° |
| 2026-05-06 06:57 | 48.68816 | 9.19432 | 1312 ft | 1 kts | 78° |
| 2026-05-06 06:57 | 48.68814 | 9.19425 | 1312 ft | 0 kts | 74° |
| 2026-05-06 06:59 | 48.68815 | 9.19425 | 1312 ft | 0 kts | 74° |
| 2026-05-06 06:59 | 48.68817 | 9.19439 | 1312 ft | 4 kts | 74° |
| 2026-05-06 07:00 | 48.68832 | 9.19516 | 1310 ft | 9 kts | 73° |
| 2026-05-06 07:00 | 48.68853 | 9.19629 | 1306 ft | 12 kts | 73° |
| 2026-05-06 07:00 | 48.68879 | 9.19762 | 1302 ft | 13 kts | 73° |
| 2026-05-06 07:00 | 48.68880 | 9.19867 | 1299 ft | 9 kts | 128° |
| 2026-05-06 07:01 | 48.68817 | 9.19912 | 1297 ft | 10 kts | 148° |
| 2026-05-06 07:01 | 48.68748 | 9.19959 | 1295 ft | 11 kts | 163° |
| 2026-05-06 07:01 | 48.68670 | 9.19993 | 1294 ft | 11 kts | 163° |
| 2026-05-06 07:01 | 48.68596 | 9.20047 | 1292 ft | 11 kts | 123° |
| 2026-05-06 07:02 | 48.68603 | 9.20168 | 1289 ft | 13 kts | 74° |
| 2026-05-06 07:02 | 48.68672 | 9.20530 | 1279 ft | 63 kts | 74° |
| 2026-05-06 07:02 | 48.68840 | 9.21423 | 1254 ft | 113 kts | 73° |
| 2026-05-06 07:02 | 48.69097 | 9.22792 | 1249 ft | 152 kts | 72° |
| 2026-05-06 07:03 | 48.69391 | 9.24395 | 1507 ft | 164 kts | 72° |
| 2026-05-06 07:03 | 48.69823 | 9.26008 | 1939 ft | 169 kts | 57° |
| 2026-05-06 07:03 | 48.70393 | 9.27620 | 2331 ft | 179 kts | 65° |
| 2026-05-06 07:03 | 48.70875 | 9.29449 | 2620 ft | 194 kts | 69° |
| 2026-05-06 07:04 | 48.71320 | 9.31467 | 2903 ft | 213 kts | 72° |
| 2026-05-06 07:04 | 48.71745 | 9.33688 | 3275 ft | 228 kts | 73° |
| 2026-05-06 07:04 | 48.72166 | 9.36100 | 3678 ft | 243 kts | 75° |
| 2026-05-06 07:04 | 48.72588 | 9.38653 | 4172 ft | 255 kts | 76° |
| 2026-05-06 07:05 | 48.72998 | 9.41233 | 4850 ft | 257 kts | 76° |
| 2026-05-06 07:05 | 48.73411 | 9.43873 | 5525 ft | 262 kts | 77° |
| 2026-05-06 07:05 | 48.73829 | 9.46585 | 6078 ft | 272 kts | 77° |
| 2026-05-06 07:05 | 48.74433 | 9.49365 | 6525 ft | 287 kts | 59° |
| 2026-05-06 07:06 | 48.75791 | 9.51553 | 7236 ft | 289 kts | 31° |
| 2026-05-06 07:06 | 48.77667 | 9.52575 | 7946 ft | 291 kts | 4° |
| 2026-05-06 07:06 | 48.79695 | 9.52459 | 8634 ft | 294 kts | 352° |
| 2026-05-06 07:06 | 48.81732 | 9.52207 | 9366 ft | 299 kts | 354° |
| 2026-05-06 07:07 | 48.83836 | 9.51968 | 10070 ft | 305 kts | 354° |
| 2026-05-06 07:07 | 48.86002 | 9.51721 | 10491 ft | 322 kts | 354° |
| 2026-05-06 07:07 | 48.88282 | 9.51464 | 10893 ft | 339 kts | 354° |
| 2026-05-06 07:07 | 48.90715 | 9.51190 | 11316 ft | 357 kts | 354° |
| 2026-05-06 07:08 | 48.93254 | 9.50903 | 11818 ft | 372 kts | 354° |
| 2026-05-06 07:08 | 48.95819 | 9.50274 | 12626 ft | 374 kts | 341° |
| 2026-05-06 07:08 | 48.98182 | 9.48740 | 13413 ft | 376 kts | 331° |
| 2026-05-06 07:08 | 49.00547 | 9.47013 | 14196 ft | 382 kts | 332° |
| 2026-05-06 07:09 | 49.02976 | 9.45236 | 15019 ft | 386 kts | 332° |
| 2026-05-06 07:09 | 49.05381 | 9.43480 | 15798 ft | 391 kts | 332° |
| 2026-05-06 07:09 | 49.07840 | 9.41674 | 16600 ft | 395 kts | 332° |
| 2026-05-06 07:09 | 49.10309 | 9.39859 | 17376 ft | 400 kts | 332° |
| 2026-05-06 07:10 | 49.12832 | 9.38001 | 18142 ft | 405 kts | 332° |
| 2026-05-06 07:10 | 49.15389 | 9.36116 | 18968 ft | 409 kts | 332° |
| 2026-05-06 07:10 | 49.17956 | 9.34224 | 19847 ft | 412 kts | 332° |
| 2026-05-06 07:10 | 49.20580 | 9.32561 | 20660 ft | 417 kts | 340° |
| 2026-05-06 07:11 | 49.23453 | 9.31610 | 21470 ft | 424 kts | 351° |
| 2026-05-06 07:11 | 49.26384 | 9.31303 | 22206 ft | 429 kts | 354° |
| 2026-05-06 07:11 | 49.29389 | 9.31035 | 22966 ft | 432 kts | 354° |
| 2026-05-06 07:11 | 49.32402 | 9.30790 | 23700 ft | 436 kts | 354° |
| 2026-05-06 07:12 | 49.35424 | 9.30646 | 24347 ft | 442 kts | 359° |
| 2026-05-06 07:12 | 49.38538 | 9.31041 | 24875 ft | 450 kts | 3° |
| 2026-05-06 07:12 | 49.41663 | 9.31472 | 25484 ft | 455 kts | 2° |
| 2026-05-06 07:12 | 49.44830 | 9.31933 | 26057 ft | 461 kts | 2° |
| 2026-05-06 07:13 | 49.48035 | 9.32398 | 26585 ft | 466 kts | 3° |
| 2026-05-06 07:13 | 49.51270 | 9.32873 | 27112 ft | 472 kts | 3° |
| 2026-05-06 07:13 | 49.54572 | 9.33360 | 27622 ft | 477 kts | 3° |
| 2026-05-06 07:13 | 49.57887 | 9.33851 | 28109 ft | 482 kts | 2° |
| 2026-05-06 07:14 | 49.61206 | 9.34345 | 28633 ft | 486 kts | 2° |
| 2026-05-06 07:14 | 49.64609 | 9.34850 | 29089 ft | 491 kts | 2° |
| 2026-05-06 07:14 | 49.67982 | 9.35352 | 29548 ft | 495 kts | 3° |
| 2026-05-06 07:14 | 49.71440 | 9.35868 | 29959 ft | 500 kts | 2° |
| 2026-05-06 07:15 | 49.74893 | 9.36527 | 30423 ft | 505 kts | 8° |
| 2026-05-06 07:15 | 49.78344 | 9.37774 | 30991 ft | 506 kts | 12° |
| 2026-05-06 07:15 | 49.81764 | 9.39052 | 31583 ft | 504 kts | 11° |
| 2026-05-06 07:15 | 49.85145 | 9.40336 | 32291 ft | 499 kts | 12° |
| 2026-05-06 07:16 | 49.88496 | 9.41615 | 32844 ft | 495 kts | 11° |
| 2026-05-06 07:16 | 49.91833 | 9.42895 | 33283 ft | 494 kts | 11° |
| 2026-05-06 07:16 | 49.95134 | 9.44165 | 33778 ft | 489 kts | 11° |
| 2026-05-06 07:16 | 49.98429 | 9.45435 | 34251 ft | 486 kts | 11° |
| 2026-05-06 07:17 | 50.01683 | 9.46692 | 34719 ft | 484 kts | 12° |
| 2026-05-06 07:17 | 50.04973 | 9.47959 | 35053 ft | 485 kts | 11° |
| 2026-05-06 07:17 | 50.08267 | 9.48819 | 35415 ft | 483 kts | 4° |
| 2026-05-06 07:17 | 50.11631 | 9.49380 | 35740 ft | 480 kts | 4° |
| 2026-05-06 07:18 | 50.14950 | 9.49940 | 35772 ft | 478 kts | 4° |
| 2026-05-06 07:18 | 50.21563 | 9.51031 | 35773 ft | 482 kts | 4° |
| 2026-05-06 07:19 | 50.28234 | 9.52123 | 35764 ft | 482 kts | 4° |
| 2026-05-06 07:19 | 50.34906 | 9.53214 | 35757 ft | 481 kts | 4° |
| 2026-05-06 07:20 | 50.41569 | 9.54304 | 35756 ft | 481 kts | 4° |
| 2026-05-06 07:20 | 50.48221 | 9.55395 | 35757 ft | 481 kts | 4° |
| 2026-05-06 07:21 | 50.54865 | 9.56464 | 35755 ft | 479 kts | 2° |
| 2026-05-06 07:21 | 50.61443 | 9.55586 | 35759 ft | 475 kts | 343° |
| 2026-05-06 07:22 | 50.67699 | 9.52410 | 35758 ft | 474 kts | 338° |
| 2026-05-06 07:22 | 50.73947 | 9.49019 | 35754 ft | 474 kts | 338° |
| 2026-05-06 07:23 | 50.80181 | 9.45572 | 35742 ft | 473 kts | 338° |
| 2026-05-06 07:23 | 50.86380 | 9.42115 | 35755 ft | 474 kts | 338° |
| 2026-05-06 07:24 | 50.92593 | 9.38634 | 35748 ft | 474 kts | 338° |
| 2026-05-06 07:24 | 50.98754 | 9.35171 | 35257 ft | 470 kts | 338° |
| 2026-05-06 07:24 | 51.01821 | 9.33441 | 34636 ft | 473 kts | 338° |
| 2026-05-06 07:25 | 51.04893 | 9.31707 | 34242 ft | 467 kts | 339° |
| 2026-05-06 07:25 | 51.07903 | 9.30009 | 34252 ft | 452 kts | 339° |
| 2026-05-06 07:25 | 51.10921 | 9.28674 | 33850 ft | 451 kts | 348° |
| 2026-05-06 07:25 | 51.14063 | 9.28116 | 33279 ft | 452 kts | 357° |
| 2026-05-06 07:26 | 51.17177 | 9.27945 | 32689 ft | 452 kts | 357° |
| 2026-05-06 07:26 | 51.20299 | 9.27772 | 32099 ft | 451 kts | 358° |
| 2026-05-06 07:26 | 51.23448 | 9.27611 | 31474 ft | 451 kts | 358° |
| 2026-05-06 07:26 | 51.26576 | 9.27455 | 30820 ft | 451 kts | 358° |
| 2026-05-06 07:27 | 51.29715 | 9.27304 | 30024 ft | 452 kts | 358° |
| 2026-05-06 07:27 | 51.32855 | 9.27155 | 29185 ft | 454 kts | 358° |
| 2026-05-06 07:27 | 51.35989 | 9.27006 | 28649 ft | 448 kts | 358° |
| 2026-05-06 07:27 | 51.39094 | 9.26859 | 28008 ft | 446 kts | 358° |
| 2026-05-06 07:28 | 51.42193 | 9.26713 | 27427 ft | 442 kts | 358° |
| 2026-05-06 07:28 | 51.45213 | 9.26569 | 26838 ft | 438 kts | 358° |
| 2026-05-06 07:28 | 51.51265 | 9.26283 | 25692 ft | 430 kts | 358° |
| 2026-05-06 07:29 | 51.54222 | 9.26144 | 25094 ft | 427 kts | 358° |
| 2026-05-06 07:29 | 51.57171 | 9.26004 | 24512 ft | 423 kts | 357° |
| 2026-05-06 07:29 | 51.60109 | 9.25864 | 23961 ft | 419 kts | 357° |
| 2026-05-06 07:29 | 51.63016 | 9.25725 | 23398 ft | 416 kts | 357° |
| 2026-05-06 07:30 | 51.65868 | 9.25589 | 22810 ft | 413 kts | 357° |
| 2026-05-06 07:30 | 51.68743 | 9.25452 | 22202 ft | 412 kts | 357° |
| 2026-05-06 07:30 | 51.71599 | 9.25316 | 21620 ft | 409 kts | 357° |
| 2026-05-06 07:30 | 51.74416 | 9.25181 | 21060 ft | 407 kts | 357° |
| 2026-05-06 07:31 | 51.77235 | 9.25046 | 20514 ft | 404 kts | 357° |
| 2026-05-06 07:31 | 51.80058 | 9.24911 | 19984 ft | 400 kts | 357° |
| 2026-05-06 07:31 | 51.82799 | 9.24778 | 19485 ft | 397 kts | 356° |
| 2026-05-06 07:31 | 51.85569 | 9.24646 | 18980 ft | 393 kts | 356° |
| 2026-05-06 07:32 | 51.88271 | 9.24520 | 18496 ft | 390 kts | 357° |
| 2026-05-06 07:32 | 51.90963 | 9.24386 | 18021 ft | 390 kts | 356° |
| 2026-05-06 07:32 | 51.93658 | 9.24257 | 17547 ft | 386 kts | 356° |
| 2026-05-06 07:32 | 51.96349 | 9.24124 | 17067 ft | 383 kts | 356° |
| 2026-05-06 07:33 | 51.99002 | 9.23996 | 16601 ft | 380 kts | 356° |
| 2026-05-06 07:33 | 52.01630 | 9.23868 | 16126 ft | 378 kts | 357° |
| 2026-05-06 07:33 | 52.04277 | 9.23744 | 15645 ft | 377 kts | 356° |
| 2026-05-06 07:33 | 52.06854 | 9.23965 | 15141 ft | 374 kts | 6° |
| 2026-05-06 07:34 | 52.09429 | 9.24442 | 14722 ft | 373 kts | 5° |
| 2026-05-06 07:34 | 52.12014 | 9.24903 | 14284 ft | 370 kts | 5° |
| 2026-05-06 07:34 | 52.14553 | 9.25356 | 13822 ft | 367 kts | 5° |
| 2026-05-06 07:34 | 52.17072 | 9.25815 | 13375 ft | 364 kts | 5° |
| 2026-05-06 07:35 | 52.19583 | 9.26273 | 12909 ft | 362 kts | 6° |
| 2026-05-06 07:35 | 52.22062 | 9.26721 | 12470 ft | 358 kts | 6° |
| 2026-05-06 07:35 | 52.24558 | 9.27239 | 12047 ft | 358 kts | 9° |
| 2026-05-06 07:35 | 52.26973 | 9.27892 | 11592 ft | 355 kts | 9° |
| 2026-05-06 07:36 | 52.29402 | 9.28525 | 11148 ft | 352 kts | 9° |
| 2026-05-06 07:36 | 52.31822 | 9.29160 | 10714 ft | 349 kts | 9° |
| 2026-05-06 07:36 | 52.34191 | 9.29782 | 10308 ft | 344 kts | 9° |
| 2026-05-06 07:36 | 52.36549 | 9.30397 | 9974 ft | 340 kts | 10° |
| 2026-05-06 07:37 | 52.38834 | 9.30991 | 9964 ft | 323 kts | 10° |
| 2026-05-06 07:37 | 52.40981 | 9.31548 | 9753 ft | 304 kts | 10° |
| 2026-05-06 07:37 | 52.43031 | 9.32083 | 9439 ft | 289 kts | 10° |
| 2026-05-06 07:37 | 52.44972 | 9.32591 | 9210 ft | 280 kts | 11° |
| 2026-05-06 07:38 | 52.46877 | 9.33089 | 8964 ft | 276 kts | 11° |
| 2026-05-06 07:38 | 52.48773 | 9.33587 | 8767 ft | 277 kts | 11° |
| 2026-05-06 07:38 | 52.50660 | 9.34080 | 8630 ft | 275 kts | 11° |
| 2026-05-06 07:38 | 52.52555 | 9.34578 | 8485 ft | 276 kts | 11° |
| 2026-05-06 07:39 | 52.54470 | 9.35081 | 8317 ft | 277 kts | 11° |
| 2026-05-06 07:39 | 52.56356 | 9.35575 | 8138 ft | 275 kts | 11° |
| 2026-05-06 07:39 | 52.58244 | 9.36071 | 7949 ft | 271 kts | 11° |
| 2026-05-06 07:39 | 52.60088 | 9.36553 | 7765 ft | 269 kts | 11° |
| 2026-05-06 07:40 | 52.61933 | 9.36961 | 7582 ft | 271 kts | 2° |
| 2026-05-06 07:40 | 52.63788 | 9.36365 | 7443 ft | 274 kts | 342° |
| 2026-05-06 07:40 | 52.65603 | 9.35319 | 7275 ft | 275 kts | 343° |
| 2026-05-06 07:40 | 52.67401 | 9.34289 | 7101 ft | 274 kts | 342° |
| 2026-05-06 07:41 | 52.69185 | 9.33242 | 6926 ft | 271 kts | 342° |
| 2026-05-06 07:41 | 52.70950 | 9.32197 | 6762 ft | 269 kts | 342° |
| 2026-05-06 07:41 | 52.72719 | 9.31143 | 6595 ft | 269 kts | 342° |
| 2026-05-06 07:41 | 52.74460 | 9.30104 | 6437 ft | 269 kts | 342° |
| 2026-05-06 07:42 | 52.76212 | 9.29050 | 6303 ft | 267 kts | 343° |
| 2026-05-06 07:42 | 52.77956 | 9.28002 | 6139 ft | 266 kts | 343° |
| 2026-05-06 07:42 | 52.79710 | 9.26947 | 5981 ft | 265 kts | 343° |
| 2026-05-06 07:42 | 52.81415 | 9.25920 | 5834 ft | 263 kts | 343° |
| 2026-05-06 07:43 | 52.83133 | 9.24885 | 5690 ft | 262 kts | 343° |
| 2026-05-06 07:43 | 52.84868 | 9.23840 | 5532 ft | 263 kts | 344° |
| 2026-05-06 07:43 | 52.86553 | 9.22819 | 5387 ft | 253 kts | 343° |
| 2026-05-06 07:43 | 52.88153 | 9.21847 | 5383 ft | 235 kts | 344° |
| 2026-05-06 07:44 | 52.89671 | 9.20940 | 5418 ft | 236 kts | 346° |
| 2026-05-06 07:44 | 52.91289 | 9.20042 | 5150 ft | 249 kts | 346° |
| 2026-05-06 07:44 | 52.92926 | 9.19125 | 4678 ft | 247 kts | 346° |
| 2026-05-06 07:44 | 52.94523 | 9.18227 | 4319 ft | 240 kts | 346° |
| 2026-05-06 07:45 | 52.96073 | 9.17356 | 4045 ft | 231 kts | 347° |
| 2026-05-06 07:45 | 52.97568 | 9.16515 | 3821 ft | 221 kts | 347° |
| 2026-05-06 07:45 | 52.99005 | 9.15708 | 3571 ft | 213 kts | 348° |
| 2026-05-06 07:45 | 53.00371 | 9.14940 | 3340 ft | 205 kts | 348° |
| 2026-05-06 07:46 | 53.01681 | 9.14146 | 3068 ft | 197 kts | 346° |
| 2026-05-06 07:46 | 53.02891 | 9.13157 | 2872 ft | 195 kts | 334° |
| 2026-05-06 07:46 | 53.03936 | 9.11685 | 2659 ft | 198 kts | 320° |
| 2026-05-06 07:46 | 53.04745 | 9.09835 | 2577 ft | 192 kts | 308° |
| 2026-05-06 07:47 | 53.05224 | 9.07820 | 2573 ft | 196 kts | 278° |
| 2026-05-06 07:47 | 53.05204 | 9.05468 | 2629 ft | 205 kts | 273° |
| 2026-05-06 07:47 | 53.05176 | 9.03140 | 2619 ft | 200 kts | 273° |
| 2026-05-06 07:47 | 53.05143 | 9.00794 | 2493 ft | 206 kts | 272° |
| 2026-05-06 07:48 | 53.05099 | 8.98430 | 2261 ft | 201 kts | 272° |
| 2026-05-06 07:48 | 53.05054 | 8.96117 | 1973 ft | 201 kts | 273° |
| 2026-05-06 07:48 | 53.05008 | 8.93802 | 1680 ft | 200 kts | 274° |
| 2026-05-06 07:48 | 53.04962 | 8.91518 | 1388 ft | 196 kts | 272° |
| 2026-05-06 07:49 | 53.04915 | 8.89318 | 1100 ft | 182 kts | 271° |
| 2026-05-06 07:49 | 53.04871 | 8.87338 | 843 ft | 165 kts | 274° |
| 2026-05-06 07:49 | 53.04837 | 8.85487 | 606 ft | 154 kts | 272° |
| 2026-05-06 07:49 | 53.04808 | 8.83710 | 412 ft | 157 kts | 270° |
| 2026-05-06 07:50 | 53.04754 | 8.81870 | 251 ft | 159 kts | 271° |
| 2026-05-06 07:50 | 53.04716 | 8.80094 | 36 ft | 147 kts | 271° |
| 2026-05-06 07:50 | 53.04688 | 8.78609 | 16 ft | 103 kts | 268° |
| 2026-05-06 07:50 | 53.04666 | 8.77709 | 15 ft | 54 kts | 268° |
| 2026-05-06 07:51 | 53.04738 | 8.77449 | 16 ft | 22 kts | 0° |
| 2026-05-06 07:51 | 53.04885 | 8.77508 | 15 ft | 21 kts | 30° |
| 2026-05-06 07:51 | 53.04990 | 8.77662 | 15 ft | 19 kts | 49° |